createdAt,value
2022-12-23T00:07:51.290Z,22.70
2022-12-23T00:17:53.329Z,26.83
2022-12-23T00:27:55.196Z,20.20
2022-12-23T00:37:57.071Z,21.23
2022-12-23T00:47:58.882Z,24.27
2022-12-23T00:58:00.827Z,24.15
2022-12-23T01:08:11.662Z,24.40
2022-12-23T01:18:13.604Z,22.00
2022-12-23T01:28:15.517Z,28.30
2022-12-23T01:38:18.784Z,25.65
2022-12-23T01:48:25.252Z,15.30
2022-12-23T01:58:51.782Z,18.23
2022-12-23T02:08:53.926Z,17.85
2022-12-23T02:19:13.616Z,19.75
2022-12-23T02:29:27.510Z,21.50
2022-12-23T02:39:36.056Z,19.90
2022-12-23T02:49:41.776Z,20.17
2022-12-23T02:59:49.051Z,18.90
2022-12-23T03:10:16.323Z,27.48
2022-12-23T03:20:38.907Z,21.30
2022-12-23T03:30:44.379Z,20.58
2022-12-23T03:40:54.269Z,22.17
2022-12-23T03:51:04.834Z,19.27
2022-12-23T04:01:46.697Z,18.73
2022-12-23T04:11:48.639Z,20.65
2022-12-23T04:21:50.494Z,24.02
2022-12-23T04:31:52.349Z,27.90
2022-12-23T04:41:54.220Z,20.75
2022-12-23T04:51:56.105Z,15.98
2022-12-23T05:01:58.419Z,30.05
2022-12-23T05:12:00.424Z,26.60
2022-12-23T05:22:02.281Z,25.83
2022-12-23T05:32:04.473Z,22.08
2022-12-23T05:42:06.518Z,23.08
2022-12-23T05:52:08.332Z,24.83
2022-12-23T06:02:10.392Z,26.63
2022-12-23T06:12:12.529Z,28.55
2022-12-23T06:22:15.488Z,27.20
2022-12-23T06:32:17.349Z,29.83
2022-12-23T06:42:19.228Z,24.65
2022-12-23T06:52:21.007Z,29.15
2022-12-23T07:02:22.925Z,35.08
2022-12-23T07:12:25.034Z,35.40
2022-12-23T07:22:26.955Z,24.20
2022-12-23T07:32:28.815Z,24.90
2022-12-23T07:42:44.948Z,25.60
2022-12-23T07:52:48.277Z,21.33
2022-12-23T08:02:50.333Z,30.20
2022-12-23T08:12:52.239Z,31.02
2022-12-23T08:22:55.334Z,25.95
2022-12-23T08:32:57.244Z,28.55
2022-12-23T08:42:59.277Z,26.77
2022-12-23T08:53:01.182Z,28.63
2022-12-23T09:03:03.985Z,27.05
2022-12-23T09:13:05.962Z,27.77
2022-12-23T09:23:07.901Z,32.50
2022-12-23T09:33:09.816Z,22.58
2022-12-23T09:43:54.742Z,20.45
2022-12-23T09:54:18.109Z,14.25
2022-12-23T10:04:23.038Z,13.07
2022-12-23T10:14:33.538Z,11.27
2022-12-23T10:24:47.879Z,11.95
2022-12-23T10:35:07.435Z,12.73
2022-12-23T10:45:31.858Z,12.17
2022-12-23T10:55:36.921Z,17.02
2022-12-23T11:05:38.905Z,11.32
2022-12-23T11:15:41.595Z,15.15
2022-12-23T11:25:43.916Z,14.30
2022-12-23T11:35:45.784Z,17.55
2022-12-23T11:45:47.792Z,15.10
2022-12-23T11:56:04.579Z,17.10
2022-12-23T12:06:07.584Z,17.73
2022-12-23T12:16:35.421Z,14.18
2022-12-23T12:26:38.260Z,12.93
2022-12-23T12:36:59.394Z,12.07
2022-12-23T12:47:36.050Z,11.75
2022-12-23T12:57:36.910Z,10.77
2022-12-23T13:07:47.228Z,8.48
2022-12-23T13:18:16.481Z,10.38
2022-12-23T13:28:38.320Z,10.85
2022-12-23T13:39:33.804Z,10.20
2022-12-23T13:50:07.106Z,8.63
2022-12-23T14:00:17.955Z,9.60
2022-12-23T14:10:23.056Z,13.00
2022-12-23T14:21:01.974Z,11.98
2022-12-23T14:31:06.085Z,13.63
2022-12-23T14:41:48.242Z,13.15
2022-12-23T14:51:50.151Z,16.00
2022-12-23T15:01:55.476Z,17.33
2022-12-23T15:12:01.102Z,18.48
2022-12-23T15:22:19.908Z,19.55
2022-12-23T15:32:27.611Z,18.17
2022-12-23T15:42:30.959Z,20.20
2022-12-23T15:52:33.106Z,25.00
2022-12-23T16:12:59.457Z,21.58
2022-12-23T16:23:02.844Z,21.80
2022-12-23T16:33:07.249Z,19.95
2022-12-23T16:43:09.261Z,26.58
2022-12-23T16:53:14.749Z,20.35
2022-12-23T17:03:18.327Z,24.05
2022-12-23T17:13:20.217Z,22.42
2022-12-23T17:23:32.589Z,24.17
2022-12-23T17:33:34.547Z,27.77
2022-12-23T17:43:36.413Z,20.63
2022-12-23T17:53:39.006Z,23.13
2022-12-23T18:03:40.867Z,20.60
2022-12-23T18:13:42.799Z,19.92
2022-12-23T18:23:44.814Z,22.00
2022-12-23T18:33:47.137Z,23.30
2022-12-23T18:43:49.828Z,20.80
2022-12-23T18:53:51.726Z,22.45
2022-12-23T19:03:53.578Z,19.77
2022-12-23T19:13:55.483Z,24.25
2022-12-23T19:23:57.439Z,23.08
2022-12-23T19:34:00.220Z,23.45
2022-12-23T19:44:03.211Z,28.40
2022-12-23T19:54:05.199Z,22.58
2022-12-23T20:04:07.077Z,25.35
2022-12-23T20:14:09.716Z,25.30
2022-12-23T20:24:12.334Z,24.40
2022-12-23T20:34:16.973Z,23.80
2022-12-23T20:44:36.208Z,23.25
2022-12-23T20:54:38.722Z,23.30
2022-12-23T21:04:41.213Z,23.48
2022-12-23T21:14:43.203Z,28.80
2022-12-23T21:24:45.036Z,29.88
2022-12-23T21:34:46.906Z,34.13
2022-12-23T21:44:48.793Z,31.60
2022-12-23T21:54:50.681Z,29.38
2022-12-23T22:04:52.610Z,32.05
2022-12-23T22:14:54.440Z,36.03
2022-12-23T22:24:56.411Z,35.40
2022-12-23T22:34:58.221Z,34.58
2022-12-23T22:45:00.211Z,27.40
2022-12-23T22:55:02.155Z,28.65
2022-12-23T23:05:09.213Z,44.47
2022-12-23T23:15:14.359Z,42.60
2022-12-23T23:25:16.256Z,40.92
2022-12-23T23:35:18.158Z,34.22
2022-12-23T23:45:20.359Z,28.73
2022-12-23T23:55:22.291Z,23.50
